createdAt,value
2024-02-02T02:20:34.296Z,1020.48
2024-02-02T02:21:34.701Z,1020.45
2024-02-02T02:22:35.579Z,1020.45
2024-02-02T02:23:36.460Z,1020.46
2024-02-02T02:24:37.396Z,1020.47
2024-02-02T02:25:38.404Z,1020.46
2024-02-02T02:26:38.773Z,1020.43
2024-02-02T02:27:39.655Z,1020.44
2024-02-02T02:28:40.545Z,1020.47
2024-02-02T02:29:41.421Z,1020.51
2024-02-02T02:30:42.341Z,1020.51
2024-02-02T02:31:43.239Z,1020.52
2024-02-02T02:32:44.151Z,1020.52
2024-02-02T02:33:45.303Z,1020.53
2024-02-02T02:34:45.786Z,1020.54
2024-02-02T02:35:46.888Z,1020.55
2024-02-02T02:36:47.251Z,1020.54
2024-02-02T02:37:48.121Z,1020.50
2024-02-02T02:38:49.023Z,1020.49
2024-02-02T02:39:49.880Z,1020.44
2024-02-02T02:40:50.800Z,1020.42
2024-02-02T02:41:51.698Z,1020.40
2024-02-02T02:42:52.566Z,1020.37
2024-02-02T02:43:53.462Z,1020.37
2024-02-02T02:44:54.327Z,1020.36
2024-02-02T02:45:55.242Z,1020.37
2024-02-02T02:46:56.122Z,1020.38
2024-02-02T02:47:57.126Z,1020.38
2024-02-02T02:48:57.666Z,1020.36
2024-02-02T02:49:58.089Z,1020.37
2024-02-02T02:50:59.186Z,1020.36
2024-02-02T02:51:59.537Z,1020.34
2024-02-02T02:53:00.435Z,1020.33
2024-02-02T02:54:01.303Z,1020.32
2024-02-02T02:55:02.198Z,1020.33
2024-02-02T02:56:03.108Z,1020.32
2024-02-02T02:57:04.012Z,1020.29
2024-02-02T02:58:04.857Z,1020.29
2024-02-02T02:59:05.742Z,1020.29
2024-02-02T03:00:06.652Z,1020.28
2024-02-02T03:01:07.731Z,1020.32
2024-02-02T03:02:08.064Z,1020.34
2024-02-02T03:03:09.055Z,1020.32
2024-02-02T03:04:09.524Z,1020.29
2024-02-02T03:05:10.384Z,1020.26
2024-02-02T03:06:11.412Z,1020.26
2024-02-02T03:07:11.994Z,1020.23
2024-02-02T03:08:12.389Z,1020.22
2024-02-02T03:09:13.303Z,1020.23
2024-02-02T03:10:14.154Z,1020.22
2024-02-02T03:11:15.073Z,1020.21
2024-02-02T03:12:15.990Z,1020.20
2024-02-02T03:13:16.824Z,1020.23
2024-02-02T03:14:17.705Z,1020.24
2024-02-02T03:15:18.642Z,1020.25
2024-02-02T03:16:19.620Z,1020.26
2024-02-02T03:17:19.988Z,1020.28
2024-02-02T03:18:21.083Z,1020.28
2024-02-02T03:19:21.645Z,1020.26
2024-02-02T03:20:22.026Z,1020.26
2024-02-02T03:21:23.126Z,1020.23
2024-02-02T03:22:23.484Z,1020.21
2024-02-02T03:23:24.361Z,1020.19
2024-02-02T03:24:25.286Z,1020.19
2024-02-02T03:25:26.127Z,1020.17
2024-02-02T03:26:27.160Z,1020.11
2024-02-02T03:27:27.622Z,1020.05
2024-02-02T03:28:28.461Z,1020.00
2024-02-02T03:29:29.338Z,1019.97
2024-02-02T03:30:30.242Z,1019.97
2024-02-02T03:31:31.124Z,1019.99
2024-02-02T03:32:32.043Z,1020.00
2024-02-02T03:33:33.022Z,1020.00
2024-02-02T03:34:33.490Z,1019.99
2024-02-02T03:35:34.367Z,1019.97
2024-02-02T03:36:35.375Z,1020.00
2024-02-02T03:37:36.237Z,1020.01
2024-02-02T03:38:37.108Z,1020.02
2024-02-02T03:39:38.046Z,1020.07
2024-02-02T03:40:38.888Z,1020.04
2024-02-02T03:41:39.794Z,1020.05
2024-02-02T03:42:40.688Z,1020.02
2024-02-02T03:43:41.559Z,1020.03
2024-02-02T03:44:42.438Z,1020.06
2024-02-02T03:45:43.318Z,1020.11
2024-02-02T03:46:44.341Z,1020.12
2024-02-02T03:47:44.750Z,1020.11
2024-02-02T03:48:45.665Z,1020.13
2024-02-02T03:49:46.565Z,1020.15
2024-02-02T03:50:47.421Z,1020.15
2024-02-02T03:51:48.339Z,1020.20
2024-02-02T03:52:49.199Z,1020.18
2024-02-02T03:53:50.113Z,1020.17
2024-02-02T03:54:50.962Z,1020.13
2024-02-02T03:55:51.840Z,1020.14
2024-02-02T03:56:52.822Z,1020.14
2024-02-02T03:57:53.680Z,1020.16
2024-02-02T03:58:54.548Z,1020.17
2024-02-02T03:59:55.469Z,1020.18
2024-02-02T04:00:56.324Z,1020.14
2024-02-02T04:01:57.329Z,1020.09
2024-02-02T04:02:57.777Z,1020.06
2024-02-02T04:03:58.683Z,1020.06
2024-02-02T04:04:59.670Z,1020.08
2024-02-02T04:06:00.563Z,1020.10
2024-02-02T04:07:01.513Z,1020.15
2024-02-02T04:08:02.340Z,1020.15
2024-02-02T04:09:03.282Z,1020.15
2024-02-02T04:10:04.148Z,1020.10
2024-02-02T04:11:05.011Z,1020.06
2024-02-02T04:12:05.998Z,1020.01
2024-02-02T04:13:06.820Z,1019.99
2024-02-02T04:14:07.702Z,1019.99
2024-02-02T04:15:08.636Z,1020.00
2024-02-02T04:16:09.483Z,1020.00
2024-02-02T04:17:10.515Z,1019.99
2024-02-02T04:18:11.042Z,1020.01
2024-02-02T04:19:11.495Z,1019.97
2024-02-02T04:20:12.361Z,1019.91
2024-02-02T04:21:13.282Z,1019.84
2024-02-02T04:22:14.199Z,1019.80
2024-02-02T04:23:15.049Z,1019.80
2024-02-02T04:24:16.000Z,1019.81
2024-02-02T04:25:16.861Z,1019.79
2024-02-02T04:26:17.739Z,1019.78
2024-02-02T04:27:18.756Z,1019.75
2024-02-02T04:28:19.159Z,1019.75
2024-02-02T04:29:20.019Z,1019.70
2024-02-02T04:30:20.949Z,1019.65
2024-02-02T04:31:21.814Z,1019.61
2024-02-02T04:32:22.715Z,1019.61
2024-02-02T04:33:23.719Z,1019.62
2024-02-02T04:34:24.395Z,1019.60
2024-02-02T04:35:24.830Z,1019.61
2024-02-02T04:36:25.811Z,1019.60
2024-02-02T04:37:26.363Z,1019.61
2024-02-02T04:38:26.731Z,1019.52
2024-02-02T04:39:27.693Z,1019.51
2024-02-02T04:40:28.549Z,1019.50
2024-02-02T04:41:29.458Z,1019.52
2024-02-02T04:42:30.486Z,1019.50
2024-02-02T04:43:30.905Z,1019.46
2024-02-02T04:44:31.749Z,1019.41
2024-02-02T04:45:32.707Z,1019.37
2024-02-02T04:46:33.573Z,1019.39
2024-02-02T04:47:34.531Z,1019.37
2024-02-02T04:48:35.544Z,1019.34
2024-02-02T04:49:36.043Z,1019.35
2024-02-02T04:50:36.926Z,1019.34
2024-02-02T04:51:37.942Z,1019.32
2024-02-02T04:52:38.949Z,1019.32
2024-02-02T04:53:39.311Z,1019.32
2024-02-02T04:54:40.197Z,1019.27
2024-02-02T04:55:41.118Z,1019.20
2024-02-02T04:56:41.994Z,1019.22
2024-02-02T04:57:42.915Z,1019.25
2024-02-02T04:58:43.796Z,1019.32
2024-02-02T04:59:44.676Z,1019.35
2024-02-02T05:00:45.688Z,1019.36
2024-02-02T05:01:46.553Z,1019.31
2024-02-02T05:02:47.475Z,1019.29
2024-02-02T05:03:48.495Z,1019.23
2024-02-02T05:04:48.873Z,1019.22
2024-02-02T05:05:49.746Z,1019.20
2024-02-02T05:06:50.630Z,1019.15
2024-02-02T05:07:51.592Z,1019.04
2024-02-02T05:08:52.483Z,1018.98
2024-02-02T05:09:53.330Z,1018.99
2024-02-02T05:10:54.216Z,1019.02
2024-02-02T05:11:55.139Z,1018.98
2024-02-02T05:12:56.192Z,1018.85
2024-02-02T05:13:56.542Z,1018.80
2024-02-02T05:14:57.431Z,1018.74
2024-02-02T05:15:58.310Z,1018.68
2024-02-02T05:16:58.915Z,1018.55
2024-02-02T05:18:00.022Z,1018.49
2024-02-02T05:19:00.539Z,1018.57
2024-02-02T05:20:00.975Z,1018.55
2024-02-02T05:21:01.876Z,1018.59
2024-02-02T05:22:02.796Z,1018.56
2024-02-02T05:23:03.852Z,1018.59
2024-02-02T05:24:15.910Z,1018.58
2024-02-02T05:25:05.980Z,1018.52
2024-02-02T05:26:05.841Z,1018.55
2024-02-02T05:27:06.746Z,1018.56
2024-02-02T05:28:07.837Z,1018.58
2024-02-02T05:29:08.213Z,1018.56
2024-02-02T05:30:09.146Z,1018.51
2024-02-02T05:31:09.988Z,1018.45
2024-02-02T05:32:10.862Z,1018.41
2024-02-02T05:33:11.874Z,1018.35
2024-02-02T05:34:12.416Z,1018.32
2024-02-02T05:35:12.858Z,1018.39
2024-02-02T05:36:13.759Z,1018.44
2024-02-02T05:37:14.605Z,1018.47
2024-02-02T05:38:15.655Z,1018.50
2024-02-02T05:39:16.087Z,1018.52
2024-02-02T05:40:16.949Z,1018.52
2024-02-02T05:41:17.830Z,1018.58
2024-02-02T05:42:18.768Z,1018.55
2024-02-02T05:43:19.616Z,1018.58
2024-02-02T05:44:20.496Z,1018.55
2024-02-02T05:45:21.389Z,1018.58
2024-02-02T05:46:22.253Z,1018.54
2024-02-02T05:47:23.141Z,1018.64
2024-02-02T05:48:24.118Z,1018.64
2024-02-02T05:49:25.158Z,1018.59
2024-02-02T05:50:25.603Z,1018.59
2024-02-02T05:51:26.598Z,1018.60
2024-02-02T05:52:27.441Z,1018.61
2024-02-02T05:53:28.483Z,1018.58
2024-02-02T05:54:28.963Z,1018.55
2024-02-02T05:55:29.355Z,1018.53
2024-02-02T05:56:30.243Z,1018.60
2024-02-02T05:57:31.200Z,1018.58
2024-02-02T05:58:32.246Z,1018.56
2024-02-02T05:59:32.633Z,1018.56
2024-02-02T06:00:33.512Z,1018.52
2024-02-02T06:01:34.404Z,1018.52
2024-02-02T06:02:35.288Z,1018.48
2024-02-02T06:03:36.321Z,1018.44
2024-02-02T06:04:36.764Z,1018.43
2024-02-02T06:05:37.685Z,1018.40
2024-02-02T06:06:38.664Z,1018.39
2024-02-02T06:07:39.069Z,1018.38
2024-02-02T06:08:40.139Z,1018.36
2024-02-02T06:09:40.553Z,1018.36
2024-02-02T06:10:41.512Z,1018.35
2024-02-02T06:11:42.371Z,1018.36
2024-02-02T06:12:43.276Z,1018.35
2024-02-02T06:13:44.276Z,1018.37
2024-02-02T06:14:44.663Z,1018.25
2024-02-02T06:15:45.574Z,1018.22
2024-02-02T06:16:46.461Z,1018.21
2024-02-02T06:17:47.367Z,1018.19
2024-02-02T06:18:48.422Z,1018.20
2024-02-02T06:19:48.986Z,1018.19
2024-02-02T06:20:49.858Z,1018.16
2024-02-02T06:21:50.738Z,1018.16
2024-02-02T06:22:51.645Z,1018.23
2024-02-02T06:23:52.708Z,1018.24
2024-02-02T06:24:53.065Z,1018.24
2024-02-02T06:25:53.935Z,1018.15
2024-02-02T06:26:54.826Z,1018.19
2024-02-02T06:27:55.693Z,1018.21
2024-02-02T06:28:56.692Z,1018.20
2024-02-02T06:29:57.562Z,1018.18
2024-02-02T06:30:58.410Z,1018.14
2024-02-02T06:31:59.292Z,1018.13
2024-02-02T06:33:00.314Z,1018.08
2024-02-02T06:34:00.872Z,1018.00
2024-02-02T06:35:01.569Z,1017.94
2024-02-02T06:36:02.100Z,1017.88
2024-02-02T06:37:02.969Z,1017.93
2024-02-02T06:38:03.860Z,1017.93
2024-02-02T06:39:04.921Z,1017.95
2024-02-02T06:40:05.683Z,1018.01
2024-02-02T06:41:06.060Z,1017.99
2024-02-02T06:42:07.006Z,1017.99
2024-02-02T06:43:07.916Z,1017.97
2024-02-02T06:44:08.817Z,1018.09
2024-02-02T06:45:09.740Z,1017.96
2024-02-02T06:46:10.598Z,1017.94
2024-02-02T06:47:11.482Z,1017.98
2024-02-02T06:48:12.496Z,1017.94
2024-02-02T06:49:13.308Z,1017.92
2024-02-02T06:50:13.842Z,1017.96
2024-02-02T06:51:14.820Z,1017.99
2024-02-02T06:52:15.668Z,1018.00
2024-02-02T06:53:16.579Z,1018.03
2024-02-02T06:54:17.611Z,1018.07
2024-02-02T06:55:18.487Z,1018.07
2024-02-02T06:56:19.364Z,1018.08
2024-02-02T06:57:20.326Z,1018.06
2024-02-02T06:58:21.185Z,1018.09
2024-02-02T06:59:22.104Z,1018.11
2024-02-02T07:00:23.016Z,1018.02
2024-02-02T07:01:23.900Z,1018.13
2024-02-02T07:02:24.759Z,1018.18
2024-02-02T07:03:25.750Z,1018.19
2024-02-02T07:04:26.346Z,1018.19
2024-02-02T07:05:26.751Z,1018.18
2024-02-02T07:06:27.784Z,1018.16
2024-02-02T07:07:28.181Z,1018.17
2024-02-02T07:08:29.048Z,1018.15
2024-02-02T07:09:30.057Z,1018.13
2024-02-02T07:10:30.909Z,1018.17
2024-02-02T07:11:34.138Z,1018.25
2024-02-02T07:12:32.702Z,1018.26
2024-02-02T07:13:33.111Z,1018.28
2024-02-02T07:14:34.032Z,1018.34
2024-02-02T07:15:34.997Z,1018.32
2024-02-02T07:16:35.415Z,1018.33
2024-02-02T07:17:36.424Z,1018.30
2024-02-02T07:18:37.558Z,1018.26
2024-02-02T07:19:38.281Z,1018.27
2024-02-02T07:20:38.685Z,1018.23
2024-02-02T07:21:39.603Z,1018.21
2024-02-02T07:22:40.471Z,1018.25
2024-02-02T07:23:41.342Z,1018.28
2024-02-02T07:24:42.467Z,1018.29
2024-02-02T07:25:42.806Z,1018.28
2024-02-02T07:26:43.692Z,1018.25
2024-02-02T07:27:44.566Z,1018.34
2024-02-02T07:28:45.447Z,1018.32
2024-02-02T07:29:46.428Z,1018.36
2024-02-02T07:30:47.304Z,1018.31
2024-02-02T07:31:48.246Z,1018.38
2024-02-02T07:32:49.149Z,1018.31
2024-02-02T07:33:50.148Z,1018.24
2024-02-02T07:34:50.919Z,1018.27
2024-02-02T07:35:51.337Z,1018.28
2024-02-02T07:36:52.221Z,1018.28
2024-02-02T07:37:53.093Z,1018.23
2024-02-02T07:38:53.995Z,1018.25
2024-02-02T07:39:54.903Z,1018.21
2024-02-02T07:40:55.753Z,1018.21
2024-02-02T07:41:56.662Z,1018.20
2024-02-02T07:42:57.568Z,1018.10
2024-02-02T07:43:58.432Z,1018.22
2024-02-02T07:44:59.391Z,1018.20
2024-02-02T07:46:00.263Z,1018.28
2024-02-02T07:47:01.141Z,1018.22
2024-02-02T07:48:02.128Z,1018.17
2024-02-02T07:49:02.592Z,1018.16
2024-02-02T07:50:03.499Z,1018.10
2024-02-02T07:51:04.428Z,1018.08
2024-02-02T07:52:05.282Z,1018.13
2024-02-02T07:53:06.175Z,1018.12
2024-02-02T07:54:07.097Z,1018.18
2024-02-02T07:55:08.009Z,1018.11
2024-02-02T07:56:08.843Z,1018.09
2024-02-02T07:57:09.771Z,1018.09
2024-02-02T07:58:10.610Z,1018.06
2024-02-02T07:59:11.494Z,1018.07
2024-02-02T08:00:12.551Z,1018.08
2024-02-02T08:01:13.004Z,1018.08
2024-02-02T08:02:13.477Z,1018.18
2024-02-02T08:03:14.451Z,1018.14
2024-02-02T08:04:15.391Z,1018.13
2024-02-02T08:05:16.355Z,1018.11
2024-02-02T08:06:17.287Z,1018.14
2024-02-02T08:07:18.249Z,1018.13
2024-02-02T08:08:19.131Z,1018.07
2024-02-02T08:09:20.136Z,1018.01
2024-02-02T08:10:20.690Z,1018.12
2024-02-02T08:11:21.045Z,1017.98
2024-02-02T08:12:21.984Z,1018.08
2024-02-02T08:13:22.826Z,1018.00
2024-02-02T08:14:23.705Z,1017.97
2024-02-02T08:15:24.654Z,1017.97
2024-02-02T08:16:25.496Z,1017.96
2024-02-02T08:17:26.388Z,1017.94
2024-02-02T08:18:27.402Z,1017.99
2024-02-02T08:19:27.909Z,1017.93
2024-02-02T08:20:28.400Z,1017.91
2024-02-02T08:21:29.330Z,1018.03
2024-02-02T08:22:30.189Z,1017.94
2024-02-02T08:23:31.072Z,1017.94
2024-02-02T08:24:32.012Z,1017.87
2024-02-02T08:25:32.950Z,1017.88
2024-02-02T08:26:33.833Z,1017.90
2024-02-02T08:27:34.726Z,1017.83
2024-02-02T08:28:42.524Z,1017.82
2024-02-02T08:29:37.405Z,1017.79
2024-02-02T08:30:37.426Z,1017.80
2024-02-02T08:31:37.845Z,1017.81
2024-02-02T08:32:38.750Z,1017.83
2024-02-02T08:33:39.641Z,1017.82
2024-02-02T08:34:40.568Z,1017.88
2024-02-02T08:35:41.547Z,1017.84
2024-02-02T08:36:42.430Z,1017.77
2024-02-02T08:37:43.314Z,1017.72
2024-02-02T08:38:44.201Z,1017.76
2024-02-02T08:39:45.100Z,1017.67
2024-02-02T08:40:46.371Z,1017.62
2024-02-02T08:41:46.818Z,1017.65
2024-02-02T08:42:47.712Z,1017.68
2024-02-02T08:43:49.161Z,1017.66
2024-02-02T08:44:49.098Z,1017.63
2024-02-02T08:45:50.053Z,1017.68
2024-02-02T08:46:50.913Z,1017.67
2024-02-02T08:47:51.837Z,1017.74
2024-02-02T08:48:52.927Z,1017.62
2024-02-02T08:49:53.434Z,1017.66
2024-02-02T08:50:54.354Z,1017.57
2024-02-02T08:51:55.278Z,1017.53
2024-02-02T08:52:56.161Z,1017.53
2024-02-02T08:53:57.087Z,1017.49
2024-02-02T08:54:57.963Z,1017.59
2024-02-02T08:55:59.006Z,1017.55
2024-02-02T08:56:59.386Z,1017.53
2024-02-02T08:58:00.246Z,1017.50
2024-02-02T08:59:01.138Z,1017.55
2024-02-02T09:00:02.053Z,1017.64
2024-02-02T09:01:03.022Z,1017.65
2024-02-02T09:02:03.889Z,1017.61
2024-02-02T09:03:05.978Z,1017.54
2024-02-02T09:04:05.756Z,1017.56
2024-02-02T09:05:06.137Z,1017.49
2024-02-02T09:06:07.204Z,1017.50
2024-02-02T09:07:07.721Z,1017.68
2024-02-02T09:08:08.603Z,1017.39
2024-02-02T09:09:09.637Z,1017.42
2024-02-02T09:10:10.279Z,1017.48
2024-02-02T09:11:10.889Z,1017.46
2024-02-02T09:12:11.269Z,1017.54
2024-02-02T09:13:12.138Z,1017.50
2024-02-02T09:14:13.014Z,1017.43
2024-02-02T09:15:13.959Z,1017.41
2024-02-02T09:16:14.832Z,1017.48
2024-02-02T09:17:15.721Z,1017.41
2024-02-02T09:18:16.663Z,1017.39
2024-02-02T09:19:17.592Z,1017.46
2024-02-02T09:20:18.440Z,1017.47
2024-02-02T09:21:19.482Z,1017.50
2024-02-02T09:22:19.848Z,1017.49
2024-02-02T09:23:20.716Z,1017.54
2024-02-02T09:24:21.650Z,1017.54
2024-02-02T09:25:22.495Z,1017.52
2024-02-02T09:26:23.582Z,1017.51
2024-02-02T09:27:24.025Z,1017.49
2024-02-02T09:28:24.933Z,1017.45
2024-02-02T09:29:25.450Z,1017.48
2024-02-02T09:30:26.452Z,1017.43
2024-02-02T09:31:27.364Z,1017.41
2024-02-02T09:32:28.263Z,1017.45
2024-02-02T09:33:29.228Z,1017.38
2024-02-02T09:34:30.165Z,1017.38
2024-02-02T09:35:31.025Z,1017.32
2024-02-02T09:36:31.952Z,1017.47
2024-02-02T09:37:32.828Z,1017.40
2024-02-02T09:38:33.701Z,1017.33
2024-02-02T09:39:34.292Z,1017.38
2024-02-02T09:40:35.141Z,1017.30
2024-02-02T09:41:36.080Z,1017.43
2024-02-02T09:42:37.007Z,1017.33
2024-02-02T09:43:37.859Z,1017.26
2024-02-02T09:44:38.723Z,1017.20
2024-02-02T09:45:39.743Z,1017.33
2024-02-02T09:46:40.236Z,1017.23
2024-02-02T09:47:41.228Z,1017.38
2024-02-02T09:48:42.293Z,1017.35
2024-02-02T09:49:42.804Z,1017.32
2024-02-02T09:50:43.688Z,1017.35
2024-02-02T09:51:44.619Z,1017.36
2024-02-02T09:52:45.503Z,1017.32
2024-02-02T09:53:46.450Z,1017.28
2024-02-02T09:54:47.343Z,1017.35
2024-02-02T09:55:48.228Z,1017.22
2024-02-02T09:56:49.278Z,1017.20
2024-02-02T09:57:49.624Z,1017.23
2024-02-02T09:58:50.501Z,1017.28
2024-02-02T09:59:51.378Z,1017.39
2024-02-02T10:00:52.316Z,1017.17
2024-02-02T10:01:53.327Z,1017.31
2024-02-02T10:02:53.707Z,1017.30
2024-02-02T10:03:54.652Z,1017.25
2024-02-02T10:04:55.508Z,1017.34
2024-02-02T10:05:56.460Z,1017.38
2024-02-02T10:06:57.419Z,1017.27
2024-02-02T10:07:57.838Z,1017.23
2024-02-02T10:08:58.732Z,1017.25
2024-02-02T10:09:59.419Z,1017.27
2024-02-02T10:11:00.300Z,1017.29
2024-02-02T10:12:01.405Z,1017.44
2024-02-02T10:13:01.731Z,1017.35
2024-02-02T10:14:02.625Z,1017.34
2024-02-02T10:15:04.789Z,1017.46
2024-02-02T10:16:04.481Z,1017.45
2024-02-02T10:17:05.497Z,1017.31
2024-02-02T10:18:05.985Z,1017.31
2024-02-02T10:19:06.562Z,1017.32
2024-02-02T10:20:07.028Z,1017.35
2024-02-02T10:21:08.308Z,1017.37
2024-02-02T10:22:08.748Z,1017.36
2024-02-02T10:23:09.625Z,1017.33
2024-02-02T10:24:15.631Z,1017.29
2024-02-02T10:25:12.275Z,1017.33
2024-02-02T10:26:12.156Z,1017.34
2024-02-02T10:27:13.110Z,1017.36
2024-02-02T10:28:13.963Z,1017.29
2024-02-02T10:29:14.844Z,1017.29
2024-02-02T10:30:15.762Z,1017.42
2024-02-02T10:31:16.604Z,1017.58
2024-02-02T10:32:17.514Z,1017.36
2024-02-02T10:33:18.544Z,1017.42
2024-02-02T10:34:19.079Z,1017.54
2024-02-02T10:35:19.448Z,1017.44
2024-02-02T10:36:20.387Z,1017.41
2024-02-02T10:37:20.966Z,1017.45
2024-02-02T10:38:21.844Z,1017.41
2024-02-02T10:39:22.749Z,1017.36
2024-02-02T10:40:23.246Z,1017.33
2024-02-02T10:41:24.135Z,1017.35
2024-02-02T10:42:25.212Z,1017.38
2024-02-02T10:43:25.568Z,1017.40
2024-02-02T10:44:26.465Z,1017.30
2024-02-02T10:45:27.394Z,1017.33
2024-02-02T10:46:28.263Z,1017.24
2024-02-02T10:47:29.296Z,1017.26
2024-02-02T10:48:29.913Z,1017.30
2024-02-02T10:49:30.380Z,1017.23
2024-02-02T10:50:31.258Z,1017.27
2024-02-02T10:51:32.278Z,1017.25
2024-02-02T10:52:32.711Z,1017.15
2024-02-02T10:53:33.592Z,1017.23
2024-02-02T10:54:34.536Z,1017.23
2024-02-02T10:55:35.423Z,1017.21
2024-02-02T10:56:36.304Z,1017.16
2024-02-02T10:57:37.422Z,1017.22
2024-02-02T10:58:37.846Z,1017.21
2024-02-02T10:59:38.715Z,1017.20
2024-02-02T11:00:39.762Z,1017.20
2024-02-02T11:01:40.275Z,1017.19
2024-02-02T11:02:41.165Z,1017.22
2024-02-02T11:03:42.884Z,1017.10
2024-02-02T11:04:42.862Z,1017.24
2024-02-02T11:05:43.825Z,1017.24
2024-02-02T11:06:44.981Z,1017.24
2024-02-02T11:07:45.416Z,1017.17
2024-02-02T11:08:46.295Z,1017.19
2024-02-02T11:09:47.176Z,1017.14
2024-02-02T11:10:48.059Z,1017.16
2024-02-02T11:11:48.941Z,1017.17
2024-02-02T11:12:49.919Z,1017.27
2024-02-02T11:13:50.745Z,1017.17
2024-02-02T11:14:51.629Z,1017.16
2024-02-02T11:15:52.533Z,1017.15
2024-02-02T11:16:53.394Z,1017.18
2024-02-02T11:17:54.366Z,1017.10
2024-02-02T11:18:55.421Z,1017.08
2024-02-02T11:19:55.895Z,1017.14
2024-02-02T11:20:56.790Z,1017.07
2024-02-02T11:21:57.653Z,1017.06
2024-02-02T11:22:58.570Z,1017.02
2024-02-02T11:23:59.467Z,1017.00
2024-02-02T11:25:00.452Z,1016.96
2024-02-02T11:26:01.301Z,1016.97
2024-02-02T11:27:02.217Z,1017.00
2024-02-02T11:28:03.124Z,1017.05
2024-02-02T11:29:03.978Z,1016.97
2024-02-02T11:30:04.890Z,1016.99
2024-02-02T11:31:05.838Z,1016.96
2024-02-02T11:32:06.718Z,1016.95
2024-02-02T11:33:07.803Z,1016.91
2024-02-02T11:34:08.538Z,1016.94
2024-02-02T11:35:08.991Z,1016.89
2024-02-02T11:36:09.949Z,1016.84
2024-02-02T11:37:10.796Z,1016.84
2024-02-02T11:38:11.730Z,1016.83
2024-02-02T11:39:12.645Z,1016.80
2024-02-02T11:40:13.505Z,1016.77
2024-02-02T11:41:14.386Z,1016.80
2024-02-02T11:42:15.311Z,1016.77
2024-02-02T11:43:16.251Z,1016.74
2024-02-02T11:44:17.094Z,1016.74
2024-02-02T11:45:18.034Z,1016.71
2024-02-02T11:46:18.939Z,1016.66
2024-02-02T11:47:19.789Z,1016.64
2024-02-02T11:48:20.782Z,1016.57
2024-02-02T11:49:21.243Z,1016.61
2024-02-02T11:50:22.132Z,1016.64
2024-02-02T11:51:23.066Z,1016.62
2024-02-02T11:52:23.932Z,1016.67
2024-02-02T11:53:24.986Z,1016.58
2024-02-02T11:54:25.362Z,1016.54
2024-02-02T11:55:26.265Z,1016.52
2024-02-02T11:56:27.138Z,1016.58
2024-02-02T11:57:28.051Z,1016.53
2024-02-02T11:58:29.060Z,1016.58
2024-02-02T11:59:29.429Z,1016.50
2024-02-02T12:00:30.317Z,1016.57
2024-02-02T12:01:31.214Z,1016.53
2024-02-02T12:02:32.077Z,1016.52
2024-02-02T12:03:33.102Z,1016.50
2024-02-02T12:04:33.981Z,1016.61
2024-02-02T12:05:34.831Z,1016.44
2024-02-02T12:06:35.817Z,1016.45
2024-02-02T12:07:36.781Z,1016.50
2024-02-02T12:08:37.348Z,1016.47
2024-02-02T12:09:37.878Z,1016.38
2024-02-02T12:10:38.269Z,1016.46
2024-02-02T12:11:44.198Z,1016.48
2024-02-02T12:12:40.933Z,1016.48
2024-02-02T12:13:40.858Z,1016.56
2024-02-02T12:14:41.705Z,1016.44
2024-02-02T12:15:42.631Z,1016.44
2024-02-02T12:16:43.485Z,1016.54
2024-02-02T12:17:44.377Z,1016.50
2024-02-02T12:18:45.420Z,1016.51
2024-02-02T12:19:46.009Z,1016.54
2024-02-02T12:20:46.396Z,1016.48
2024-02-02T12:21:47.281Z,1016.57
2024-02-02T12:22:48.159Z,1016.52
2024-02-02T12:23:49.070Z,1016.63
2024-02-02T12:24:49.965Z,1016.55
2024-02-02T12:25:50.840Z,1016.60
2024-02-02T12:26:51.712Z,1016.48
2024-02-02T12:27:52.598Z,1016.60
2024-02-02T12:28:53.635Z,1016.63
2024-02-02T12:29:54.054Z,1016.57
2024-02-02T12:30:54.887Z,1016.51
2024-02-02T12:31:55.800Z,1016.47
2024-02-02T12:32:56.852Z,1016.43
2024-02-02T12:33:57.380Z,1016.30
2024-02-02T12:34:57.845Z,1016.49
2024-02-02T12:36:04.352Z,1016.34
2024-02-02T12:37:00.668Z,1016.31
2024-02-02T12:38:00.113Z,1016.38
2024-02-02T12:39:01.271Z,1016.29
2024-02-02T12:40:01.668Z,1016.23
2024-02-02T12:41:02.516Z,1016.22
2024-02-02T12:42:04.725Z,1016.28
2024-02-02T12:43:04.180Z,1016.37
2024-02-02T12:44:05.134Z,1016.22
2024-02-02T12:45:06.014Z,1016.25
2024-02-02T12:46:06.875Z,1016.20
2024-02-02T12:47:07.869Z,1016.34
2024-02-02T12:48:08.462Z,1016.19
2024-02-02T12:49:09.124Z,1016.17
2024-02-02T12:50:09.744Z,1016.31
2024-02-02T12:51:10.176Z,1016.21
2024-02-02T12:52:11.046Z,1016.21
2024-02-02T12:53:11.922Z,1016.17
2024-02-02T12:54:12.905Z,1016.20
2024-02-02T12:55:13.779Z,1016.15
2024-02-02T12:56:14.637Z,1016.13
2024-02-02T12:57:15.593Z,1016.22
2024-02-02T12:58:16.441Z,1016.15
2024-02-02T12:59:17.505Z,1016.20
2024-02-02T13:00:17.999Z,1016.19
2024-02-02T13:01:18.537Z,1016.21
2024-02-02T13:02:18.930Z,1016.12
2024-02-02T13:03:19.813Z,1016.12
2024-02-02T13:04:20.854Z,1016.04
2024-02-02T13:05:21.271Z,1016.00
2024-02-02T13:06:22.199Z,1015.99
2024-02-02T13:07:23.079Z,1015.98
2024-02-02T13:08:23.940Z,1015.88
2024-02-02T13:09:24.892Z,1015.90
2024-02-02T13:10:25.730Z,1015.89
2024-02-02T13:11:26.703Z,1015.92
2024-02-02T13:12:27.579Z,1015.89
2024-02-02T13:13:28.450Z,1015.88
2024-02-02T13:14:29.500Z,1015.85
2024-02-02T13:15:29.934Z,1015.82
2024-02-02T13:16:30.799Z,1015.75
2024-02-02T13:17:31.747Z,1015.69
2024-02-02T13:18:32.622Z,1015.73
2024-02-02T13:19:33.717Z,1015.69
2024-02-02T13:20:34.229Z,1015.65
2024-02-02T13:21:35.156Z,1015.69
2024-02-02T13:22:36.019Z,1015.73
2024-02-02T13:23:36.902Z,1015.78
2024-02-02T13:24:37.950Z,1015.78
2024-02-02T13:25:38.304Z,1015.80
2024-02-02T13:26:39.188Z,1015.91
2024-02-02T13:27:40.158Z,1015.86
2024-02-02T13:28:41.055Z,1015.89
2024-02-02T13:29:42.000Z,1015.94
2024-02-02T13:30:42.906Z,1015.96
2024-02-02T13:31:43.746Z,1016.00
2024-02-02T13:32:44.629Z,1015.99
2024-02-02T13:33:47.645Z,1015.91
2024-02-02T13:34:46.423Z,1015.93
2024-02-02T13:35:46.809Z,1015.94
2024-02-02T13:36:47.698Z,1015.87
2024-02-02T13:37:48.576Z,1015.83
2024-02-02T13:38:49.462Z,1015.79
2024-02-02T13:39:50.360Z,1015.88
2024-02-02T13:40:51.314Z,1015.82
2024-02-02T13:41:52.144Z,1015.83
2024-02-02T13:42:53.033Z,1015.84
2024-02-02T13:43:53.914Z,1015.88
2024-02-02T13:44:54.818Z,1015.81
2024-02-02T13:45:55.719Z,1015.79
2024-02-02T13:46:56.675Z,1015.86
2024-02-02T13:47:57.827Z,1015.80
2024-02-02T13:48:58.351Z,1015.75
2024-02-02T13:49:58.893Z,1015.74
2024-02-02T13:50:59.902Z,1015.83
2024-02-02T13:52:00.749Z,1015.79
2024-02-02T13:53:01.630Z,1015.81
2024-02-02T13:54:02.561Z,1015.78
2024-02-02T13:55:03.417Z,1015.74
2024-02-02T13:56:04.452Z,1015.84
2024-02-02T13:57:04.872Z,1015.68
2024-02-02T13:58:05.741Z,1015.62
2024-02-02T13:59:06.612Z,1015.64
2024-02-02T14:00:07.606Z,1015.61
2024-02-02T14:01:08.059Z,1015.61
2024-02-02T14:02:08.946Z,1015.59
2024-02-02T14:03:09.867Z,1015.61
2024-02-02T14:04:10.774Z,1015.54
2024-02-02T14:05:11.629Z,1015.58
2024-02-02T14:06:12.582Z,1015.64
2024-02-02T14:07:13.581Z,1015.60
2024-02-02T14:08:14.446Z,1015.59
2024-02-02T14:09:15.380Z,1015.60
2024-02-02T14:10:16.239Z,1015.59
2024-02-02T14:11:17.262Z,1015.52
2024-02-02T14:12:17.694Z,1015.53
2024-02-02T14:13:18.554Z,1015.58
2024-02-02T14:14:19.436Z,1015.52
2024-02-02T14:15:20.373Z,1015.49
2024-02-02T14:16:21.266Z,1015.43
2024-02-02T14:17:22.155Z,1015.51
2024-02-02T14:18:23.042Z,1015.43
2024-02-02T14:19:23.976Z,1015.58
2024-02-02T14:20:24.852Z,1015.32
2024-02-02T14:21:25.898Z,1015.42
2024-02-02T14:22:26.275Z,1015.40
2024-02-02T14:23:27.174Z,1015.37
2024-02-02T14:24:28.101Z,1015.34
2024-02-02T14:25:28.956Z,1015.33
2024-02-02T14:26:29.874Z,1015.32
2024-02-02T14:27:30.786Z,1015.29
2024-02-02T14:28:31.662Z,1015.29
2024-02-02T14:29:32.539Z,1015.38
2024-02-02T14:30:33.465Z,1015.30
2024-02-02T14:31:34.349Z,1015.34
2024-02-02T14:32:35.249Z,1015.46
2024-02-02T14:33:36.375Z,1015.45
2024-02-02T14:34:36.927Z,1015.33
2024-02-02T14:35:37.320Z,1015.38